Time;durP1;ratioP1;P1;durP2;ratioP2;P2;SDS_P1;SDS_P2;PMS_P1;PMS_P2;Temp;Humidity;BMP_temperature;BMP_pressure;BME280_temperature;BME280_humidity;BME280_pressure;Samples;Min_cycle;Max_cycle;Signal;HPM_P1;HPM_P2
2024/03/23 00:01:38;;;;;;;;;2.00;2.00;;;;;23.89;40.81;101450.09;4916648;28;69263;-78
2024/03/23 00:04:04;;;;;;;;;1.00;1.00;;;;;23.89;40.79;101455.44;4917311;28;59971;-78
2024/03/23 00:06:31;;;;;;;;;4.33;2.67;;;;;23.88;40.83;101459.91;4916633;28;45649;-78
2024/03/23 00:08:57;;;;;;;;;3.33;2.00;;;;;23.87;40.81;101463.56;4916904;28;69658;-78
2024/03/23 00:11:24;;;;;;;;;1.00;1.00;;;;;23.87;41.03;101468.03;4916429;28;45611;-78
2024/03/23 00:13:50;;;;;;;;;1.00;1.00;;;;;23.87;40.85;101471.53;4918059;28;45451;-78
2024/03/23 00:16:17;;;;;;;;;1.67;1.67;;;;;23.85;40.85;101477.03;4917421;28;45413;-78
2024/03/23 00:18:43;;;;;;;;;2.00;2.00;;;;;23.86;40.70;101469.91;4916978;28;56136;-79
2024/03/23 00:21:10;;;;;;;;;1.67;1.00;;;;;23.85;40.93;101470.88;4920130;28;68508;-78
2024/03/23 00:23:36;;;;;;;;;1.00;1.00;;;;;23.86;40.89;101469.91;4920950;28;45322;-78
2024/03/23 00:26:03;;;;;;;;;2.00;1.67;;;;;23.84;40.87;101470.06;4920302;28;61893;-78
2024/03/23 00:28:29;;;;;;;;;1.00;1.00;;;;;23.84;40.79;101472.72;4919990;28;72384;-78
2024/03/23 00:30:56;;;;;;;;;2.67;2.67;;;;;23.85;40.78;101468.22;4919974;28;64604;-78
2024/03/23 00:33:22;;;;;;;;;1.33;1.33;;;;;23.85;40.46;101460.25;4920062;28;61282;-78
2024/03/23 00:35:48;;;;;;;;;3.67;1.33;;;;;23.83;40.79;101457.78;4920946;28;45264;-86
2024/03/23 00:38:15;;;;;;;;;2.00;2.00;;;;;23.87;40.60;101462.72;4919621;28;69904;-80
2024/03/23 00:40:41;;;;;;;;;2.00;2.00;;;;;23.87;40.69;101452.94;4924925;28;45413;-82
2024/03/23 00:43:08;;;;;;;;;1.00;1.00;;;;;23.89;40.49;101453.56;4915670;28;53525;-84
2024/03/23 00:45:35;;;;;;;;;4.67;2.00;;;;;23.89;40.57;101455.44;4909249;28;62316;-81
2024/03/23 00:48:01;;;;;;;;;2.00;1.00;;;;;23.93;40.82;101462.84;4911283;28;46316;-82
2024/03/23 00:50:28;;;;;;;;;1.33;1.33;;;;;23.95;40.63;101470.63;4908919;28;68913;-80
2024/03/23 00:52:53;;;;;;;;;3.67;1.67;;;;;23.95;40.52;101481.28;4909301;28;66707;-80
2024/03/23 00:55:19;;;;;;;;;0.67;0.67;;;;;23.96;40.89;101481.09;4910304;28;70109;-80
2024/03/23 00:57:44;;;;;;;;;4.00;1.00;;;;;23.95;41.11;101476.78;4909291;28;45447;-83
2024/03/23 01:00:10;;;;;;;;;1.33;1.00;;;;;23.96;40.96;101477.63;4909918;28;51476;-79
2024/03/23 01:02:36;;;;;;;;;1.00;1.00;;;;;23.95;40.73;101481.28;4910909;28;45418;-78
2024/03/23 01:05:01;;;;;;;;;1.00;1.00;;;;;24.00;40.96;101486.88;4909090;28;45501;-75
2024/03/23 01:07:26;;;;;;;;;1.00;1.00;;;;;23.98;40.95;101474.78;4910913;28;46199;-81
2024/03/23 01:09:53;;;;;;;;;3.00;1.67;;;;;23.98;41.09;101480.09;4913241;28;45481;-83
2024/03/23 01:12:18;;;;;;;;;2.00;2.00;;;;;23.93;41.20;101470.00;4911287;28;45489;-80
2024/03/23 01:14:43;;;;;;;;;1.00;1.00;;;;;24.04;40.94;101493.50;4908682;28;45636;-84
2024/03/23 01:17:09;;;;;;;;;1.00;1.00;;;;;24.06;41.14;101496.81;4910246;28;46097;-81
2024/03/23 01:19:34;;;;;;;;;2.33;1.00;;;;;23.99;41.30;101487.91;4910431;28;45351;-85
2024/03/23 01:22:00;;;;;;;;;2.00;2.00;;;;;23.98;40.78;101485.41;4909265;28;45348;-83
2024/03/23 01:24:25;;;;;;;;;1.00;1.00;;;;;24.10;41.03;101507.91;4911123;28;45342;-86
2024/03/23 01:26:50;;;;;;;;;2.00;1.00;;;;;24.05;41.03;101483.69;4909786;28;45363;-84
2024/03/23 01:29:16;;;;;;;;;2.67;1.00;;;;;24.09;41.02;101495.63;4908884;28;45339;-83
2024/03/23 01:31:41;;;;;;;;;2.00;1.00;;;;;23.80;41.66;101444.84;4911222;28;45384;-80
2024/03/23 01:34:07;;;;;;;;;1.00;0.00;;;;;24.13;41.08;101494.25;4909569;28;45364;-83
2024/03/23 01:36:33;;;;;;;;;1.33;1.00;;;;;24.13;41.44;101493.41;4912728;28;47116;-85
2024/03/23 01:38:58;;;;;;;;;3.67;2.67;;;;;24.08;41.46;101496.63;4910517;28;45303;-86
2024/03/23 01:41:24;;;;;;;;;1.00;1.00;;;;;24.02;41.23;101490.19;4914100;28;45240;-78
2024/03/23 01:43:50;;;;;;;;;0.00;0.00;;;;;24.06;40.89;101493.31;4907381;28;45269;-84
2024/03/23 01:46:16;;;;;;;;;1.00;1.00;;;;;23.93;40.95;101473.50;4908808;28;46047;-83
2024/03/23 01:48:42;;;;;;;;;2.00;1.67;;;;;23.96;41.05;101482.94;4910721;28;45319;-82
2024/03/23 01:51:07;;;;;;;;;3.33;3.00;;;;;24.02;40.99;101494.69;4909625;28;45465;-84
2024/03/23 01:53:33;;;;;;;;;1.67;1.33;;;;;23.98;40.78;101496.88;4919484;28;45419;-84
2024/03/23 01:55:58;;;;;;;;;3.33;2.67;;;;;23.87;40.63;101482.16;4919384;28;46420;-84
2024/03/23 01:58:23;;;;;;;;;1.00;1.00;;;;;23.97;40.97;101492.53;4919415;28;45430;-85
2024/03/23 02:00:49;;;;;;;;;3.33;2.00;;;;;23.98;40.82;101491.56;4920222;28;45627;-85
2024/03/23 02:03:27;;;;;;;;;2.00;1.00;;;;;23.99;40.77;101492.38;4920157;28;45438;-85
2024/03/23 02:05:54;;;;;;;;;1.00;1.00;;;;;23.98;40.60;101490.72;4920326;28;47467;-85
2024/03/23 02:08:21;;;;;;;;;2.67;2.33;;;;;23.96;40.50;101489.09;4919526;28;45426;-84
2024/03/23 02:10:48;;;;;;;;;1.33;1.33;;;;;23.96;40.65;101489.09;4919719;28;45398;-84
2024/03/23 02:13:14;;;;;;;;;2.00;0.33;;;;;23.95;40.62;101483.94;4919153;28;45534;-84
2024/03/23 02:15:39;;;;;;;;;0.00;0.00;;;;;23.94;40.68;101488.41;4919482;28;47222;-83
2024/03/23 02:18:07;;;;;;;;;1.00;1.00;;;;;23.93;40.67;101494.75;4919790;28;45490;-84
2024/03/23 02:20:32;;;;;;;;;1.00;1.00;;;;;23.92;40.41;101495.75;4919775;28;45501;-85
2024/03/23 02:22:57;;;;;;;;;0.67;0.00;;;;;23.92;40.49;101486.94;4919434;28;45458;-85
2024/03/23 02:25:22;;;;;;;;;1.00;0.67;;;;;23.60;40.62;101437.34;4919649;28;45969;-84
2024/03/23 02:27:48;;;;;;;;;1.33;1.00;;;;;23.68;40.58;101443.63;4919175;28;45419;-83
2024/03/23 02:30:13;;;;;;;;;3.00;1.00;;;;;23.84;40.46;101466.56;4920128;28;45402;-86
2024/03/23 02:32:38;;;;;;;;;0.33;0.33;;;;;23.84;40.27;101463.91;4919554;28;47122;-84
2024/03/23 02:35:04;;;;;;;;;3.00;1.33;;;;;23.89;40.57;101477.50;4919276;28;45280;-85
2024/03/23 02:37:30;;;;;;;;;0.33;0.33;;;;;23.83;40.73;101467.59;4919049;28;45369;-83
2024/03/23 02:39:55;;;;;;;;;1.00;1.00;;;;;23.85;40.57;101460.25;4919591;28;45323;-85
2024/03/23 02:42:20;;;;;;;;;3.00;1.00;;;;;23.89;40.36;101476.69;4936535;28;45253;-85
2024/03/23 02:44:46;;;;;;;;;2.00;0.67;;;;;23.77;40.69;101463.81;4938273;28;45326;-84
2024/03/23 02:47:11;;;;;;;;;1.00;1.00;;;;;23.87;40.58;101470.69;4939301;28;45326;-83
2024/03/23 02:49:37;;;;;;;;;2.00;1.33;;;;;23.81;40.62;101461.63;4938425;28;45494;-85
2024/03/23 02:52:02;;;;;;;;;2.00;2.00;;;;;23.81;40.26;101462.44;4938751;28;45307;-85
2024/03/23 02:54:27;;;;;;;;;1.67;1.00;;;;;23.73;40.41;101444.72;4938490;28;46327;-84
2024/03/23 02:56:53;;;;;;;;;2.67;1.67;;;;;23.85;40.48;101468.22;4937758;28;45483;-84
2024/03/23 02:59:18;;;;;;;;;2.00;0.67;;;;;23.84;40.59;101469.22;4938506;28;45392;-85
2024/03/23 03:01:43;;;;;;;;;1.67;1.00;;;;;23.72;40.74;101450.22;4938278;28;45412;-85
2024/03/23 03:04:09;;;;;;;;;1.67;1.00;;;;;23.82;40.43;101471.22;4938410;28;46374;-86
2024/03/23 03:06:34;;;;;;;;;1.00;1.00;;;;;23.83;40.62;101467.59;4938052;28;45485;-84
2024/03/23 03:08:59;;;;;;;;;1.00;1.00;;;;;23.84;40.49;101479.84;4938205;28;45373;-84
2024/03/23 03:11:25;;;;;;;;;1.67;1.67;;;;;23.83;40.37;101479.03;4937427;28;47737;-83
2024/03/23 03:13:50;;;;;;;;;1.00;1.00;;;;;23.78;40.41;101483.22;4937712;28;45401;-83
2024/03/23 03:16:15;;;;;;;;;1.00;1.00;;;;;23.82;40.09;101488.00;4937920;28;45394;-84
2024/03/23 03:18:41;;;;;;;;;3.00;1.00;;;;;23.82;39.88;101498.63;4936797;28;45294;-84
2024/03/23 03:21:10;;;;;;;;;1.00;1.00;;;;;23.82;40.31;101493.31;4937877;28;45376;-84
2024/03/23 03:23:39;;;;;;;;;1.33;1.33;;;;;23.54;40.21;101445.19;4937485;28;46126;-85
2024/03/23 03:26:05;;;;;;;;;1.67;1.67;;;;;23.82;40.00;101492.50;4937453;28;45413;-83
2024/03/23 03:28:34;;;;;;;;;2.67;1.00;;;;;23.81;40.42;101490.84;4937884;28;45329;-84
2024/03/23 03:31:00;;;;;;;;;0.33;0.33;;;;;23.82;40.45;101492.50;4938705;28;45235;-84
2024/03/23 03:33:28;;;;;;;;;2.00;1.00;;;;;23.70;40.30;101470.81;4937442;28;47166;-84
2024/03/23 03:35:54;;;;;;;;;0.67;0.00;;;;;23.80;40.00;101486.53;4937665;28;45385;-85
2024/03/23 03:38:20;;;;;;;;;0.67;0.67;;;;;23.78;40.13;101493.84;4912031;28;45457;-84
2024/03/23 03:40:45;;;;;;;;;5.00;0.00;;;;;23.67;40.15;101465.84;4910579;28;45510;-84
2024/03/23 03:43:11;;;;;;;;;0.00;0.00;;;;;23.78;40.77;101491.19;4937576;28;46007;-84
2024/03/23 03:45:36;;;;;;;;;1.00;1.00;;;;;23.77;40.61;101490.38;4937494;28;45298;-85
2024/03/23 03:48:02;;;;;;;;;1.00;1.00;;;;;23.79;40.62;101476.91;4937887;28;45423;-85
2024/03/23 03:50:27;;;;;;;;;1.00;1.00;;;;;23.66;40.02;101448.25;4937645;28;45450;-84
2024/03/23 03:52:53;;;;;;;;;0.33;0.33;;;;;23.73;40.30;101465.16;4936236;28;47189;-84
2024/03/23 03:55:18;;;;;;;;;0.00;0.00;;;;;23.79;40.17;101484.88;4940348;28;45299;-84
2024/03/23 03:57:43;;;;;;;;;0.00;0.00;;;;;23.72;40.23;101472.31;4939731;28;45265;-84
2024/03/23 04:00:12;;;;;;;;;2.67;1.00;;;;;23.69;40.25;101462.03;4941206;28;45320;-85
2024/03/23 04:02:38;;;;;;;;;1.00;0.67;;;;;23.65;40.49;101452.78;4941063;28;45414;-84
2024/03/23 04:05:04;;;;;;;;;2.33;1.00;;;;;23.77;40.49;101471.78;4940728;28;45778;-86
2024/03/23 04:07:29;;;;;;;;;1.00;1.00;;;;;23.73;40.29;101468.63;4955582;28;45351;-80
2024/03/23 04:09:55;;;;;;;;;0.00;0.00;;;;;23.72;40.31;101467.00;4940822;28;45363;-84
2024/03/23 04:12:20;;;;;;;;;1.00;1.00;;;;;23.74;40.07;101472.94;4940662;28;45309;-84
2024/03/23 04:14:45;;;;;;;;;3.00;0.33;;;;;23.74;40.39;101488.88;4940519;28;45302;-83
2024/03/23 04:17:11;;;;;;;;;1.00;1.00;;;;;23.71;40.21;101486.59;4940831;28;45426;-84
2024/03/23 04:19:36;;;;;;;;;0.33;0.00;;;;;23.74;40.58;101499.53;4940603;28;45381;-85
2024/03/23 04:22:03;;;;;;;;;2.00;0.00;;;;;23.71;40.00;101504.34;4940341;28;46323;-85
2024/03/23 04:24:28;;;;;;;;;1.00;0.00;;;;;23.74;40.44;101486.22;4940608;28;45492;-85
2024/03/23 04:26:54;;;;;;;;;2.33;0.00;;;;;23.73;40.60;101476.59;4940442;28;45358;-84
2024/03/23 04:29:19;;;;;;;;;1.00;1.00;;;;;23.73;40.34;101473.94;4939304;28;45401;-85
2024/03/23 04:31:44;;;;;;;;;0.00;0.00;;;;;23.71;40.09;101483.94;4940506;28;45243;-85
2024/03/23 04:34:10;;;;;;;;;0.00;0.00;;;;;23.73;40.37;101503.16;4940689;28;45310;-85
2024/03/23 04:36:35;;;;;;;;;0.00;0.00;;;;;23.74;40.65;101496.88;4940323;28;45401;-85
2024/03/23 04:39:01;;;;;;;;;1.00;1.00;;;;;23.65;40.48;101482.00;4903699;28;45279;-84
2024/03/23 04:41:26;;;;;;;;;0.00;0.00;;;;;23.65;40.39;101481.16;4924587;28;47253;-83
2024/03/23 04:43:51;;;;;;;;;1.00;0.67;;;;;23.73;40.79;101500.50;4940410;28;45377;-85
2024/03/23 04:46:17;;;;;;;;;1.00;1.00;;;;;23.71;40.39;101499.88;4940560;28;45346;-86
2024/03/23 04:48:44;;;;;;;;;0.33;0.33;;;;;23.76;40.28;101515.28;4940234;28;46570;-85
2024/03/23 04:51:12;;;;;;;;;0.00;0.00;;;;;23.77;40.42;101516.94;4939886;28;47146;-86
2024/03/23 04:53:37;;;;;;;;;1.00;1.00;;;;;23.71;40.00;101509.66;4940376;28;45341;-85
2024/03/23 04:56:04;;;;;;;;;0.33;0.33;;;;;23.60;40.08;101479.84;4940505;28;45810;-85
2024/03/23 04:58:29;;;;;;;;;1.33;0.00;;;;;23.76;40.23;101509.97;4940028;28;45668;-85
2024/03/23 05:00:55;;;;;;;;;3.00;1.00;;;;;23.70;40.58;101498.22;4939752;28;46349;-85
2024/03/23 05:03:21;;;;;;;;;1.00;1.00;;;;;23.76;40.33;101509.97;4940128;28;45341;-85
2024/03/23 05:05:49;;;;;;;;;0.00;0.00;;;;;23.65;40.33;101492.63;4939635;28;45501;-86
2024/03/23 05:08:16;;;;;;;;;1.00;1.00;;;;;23.73;40.33;101503.16;4939996;28;45390;-85
2024/03/23 05:10:42;;;;;;;;;2.00;0.67;;;;;23.72;40.50;101506.84;4939972;28;45962;-83
2024/03/23 05:13:07;;;;;;;;;2.00;0.67;;;;;23.72;40.53;101506.84;4939608;28;45342;-84
2024/03/23 05:15:32;;;;;;;;;0.00;0.00;;;;;23.72;40.13;101500.69;4940365;28;45306;-84
2024/03/23 05:17:58;;;;;;;;;0.00;0.00;;;;;23.60;40.32;101490.47;4940309;28;45272;-85
2024/03/23 05:20:23;;;;;;;;;0.00;0.00;;;;;23.72;40.35;101504.19;4939422;28;46288;-86
2024/03/23 05:22:49;;;;;;;;;0.33;0.00;;;;;23.72;40.22;101513.97;4939871;28;45315;-85
2024/03/23 05:25:15;;;;;;;;;1.00;1.00;;;;;23.62;40.14;101498.28;4940051;28;45380;-84
2024/03/23 05:27:41;;;;;;;;;0.00;0.00;;;;;23.54;39.92;101490.34;4939860;28;45267;-85
2024/03/23 05:30:07;;;;;;;;;0.00;0.00;;;;;23.58;40.02;101504.91;4939619;28;46164;-84
2024/03/23 05:32:32;;;;;;;;;1.00;0.00;;;;;23.44;40.12;101477.25;4939418;28;45334;-84
2024/03/23 05:34:57;;;;;;;;;1.00;0.00;;;;;23.67;40.02;101513.69;4937834;28;45438;-84
2024/03/23 05:37:23;;;;;;;;;0.00;0.00;;;;;23.71;39.81;101520.28;4929183;28;45498;-85
2024/03/23 05:39:49;;;;;;;;;1.67;1.00;;;;;23.57;40.22;101493.50;4901556;29;45493;-85
2024/03/23 05:42:16;;;;;;;;;0.00;0.00;;;;;23.59;40.15;101509.25;4936407;28;45490;-85
2024/03/23 05:44:44;;;;;;;;;2.00;0.00;;;;;23.70;40.12;101529.28;4939414;28;45365;-84
2024/03/23 05:47:09;;;;;;;;;0.67;0.67;;;;;23.69;39.87;101522.28;4939358;28;45303;-85
2024/03/23 05:49:34;;;;;;;;;1.00;0.67;;;;;23.58;40.16;101510.22;4938981;28;45427;-84
2024/03/23 05:52:02;;;;;;;;;2.00;0.00;;;;;23.68;39.94;101534.75;4939204;28;45392;-84
2024/03/23 05:54:27;;;;;;;;;1.00;0.00;;;;;23.68;39.94;101532.09;4939170;28;45553;-84
2024/03/23 05:56:55;;;;;;;;;0.00;0.00;;;;;23.64;39.82;101528.13;4939226;28;45477;-83
2024/03/23 05:59:20;;;;;;;;;2.00;1.00;;;;;23.63;39.48;101529.13;4939311;28;45515;-84
2024/03/23 06:01:47;;;;;;;;;1.00;1.00;;;;;23.57;39.77;101516.56;4939117;28;45423;-84
2024/03/23 06:04:13;;;;;;;;;0.00;0.00;;;;;23.65;39.77;101537.78;4939063;28;45444;-84
2024/03/23 06:06:39;;;;;;;;;0.00;0.00;;;;;23.62;40.36;101525.66;4939148;28;45278;-84
2024/03/23 06:09:04;;;;;;;;;0.00;0.00;;;;;23.70;39.55;101542.56;4938874;28;46239;-84
2024/03/23 06:11:29;;;;;;;;;1.00;1.00;;;;;23.59;40.09;101527.84;4937854;28;45271;-84
2024/03/23 06:13:56;;;;;;;;;2.00;0.67;;;;;23.70;40.09;101550.53;4939122;28;45359;-84
2024/03/23 06:16:24;;;;;;;;;1.00;0.00;;;;;23.69;39.56;101555.00;4938238;28;45274;-84
2024/03/23 06:18:57;;;;;;;;;2.00;1.00;;;;;23.70;40.15;101561.16;4938347;28;45346;-84
2024/03/23 06:21:23;;;;;;;;;0.00;0.00;;;;;23.55;39.81;101539.81;4938779;28;45200;-84
2024/03/23 06:23:52;;;;;;;;;0.00;0.00;;;;;23.70;39.69;101555.84;4938978;28;45427;-84
2024/03/23 06:26:21;;;;;;;;;1.00;1.00;;;;;23.60;39.57;101548.91;4939019;28;45396;-84
2024/03/23 06:28:47;;;;;;;;;0.33;0.33;;;;;23.70;39.85;101561.16;4938615;28;45378;-84
2024/03/23 06:31:13;;;;;;;;;0.00;0.00;;;;;23.68;39.48;101563.97;4938779;28;45316;-85
2024/03/23 06:33:38;;;;;;;;;0.33;0.00;;;;;23.65;39.81;101561.69;4937347;28;45365;-84
2024/03/23 06:36:05;;;;;;;;;1.00;1.00;;;;;23.65;39.70;101561.69;4939091;28;45301;-84
2024/03/23 06:38:30;;;;;;;;;1.67;0.00;;;;;23.57;39.89;101549.25;4910052;28;46102;-84
2024/03/23 06:40:56;;;;;;;;;0.67;0.67;;;;;23.62;39.66;101559.38;4915030;28;45366;-85
2024/03/23 06:43:21;;;;;;;;;0.00;0.00;;;;;23.54;39.76;101544.28;4938486;28;45415;-84
2024/03/23 06:45:54;;;;;;;;;0.00;0.00;;;;;23.63;40.03;101561.00;4938800;28;45260;-85
2024/03/23 06:48:19;;;;;;;;;0.00;0.00;;;;;23.68;39.64;101566.63;4938237;28;46136;-84
2024/03/23 06:50:46;;;;;;;;;1.00;0.00;;;;;23.47;39.66;101543.31;4938442;28;45337;-84
2024/03/23 06:53:12;;;;;;;;;0.00;0.00;;;;;23.68;39.83;101573.78;4939338;28;45439;-84
2024/03/23 06:55:37;;;;;;;;;0.00;0.00;;;;;23.57;39.86;101554.59;4938543;28;45496;-83
2024/03/23 06:58:02;;;;;;;;;1.00;1.00;;;;;23.69;39.75;101554.16;4938156;28;45571;-84
2024/03/23 07:00:28;;;;;;;;;0.00;0.00;;;;;23.70;39.62;101559.34;4938260;28;45372;-85
2024/03/23 07:02:53;;;;;;;;;0.00;0.00;;;;;23.64;39.60;101549.38;4938587;28;45392;-85
2024/03/23 07:05:18;;;;;;;;;1.00;0.33;;;;;23.71;39.92;101555.66;4938699;28;45469;-84
2024/03/23 07:07:44;;;;;;;;;0.00;0.00;;;;;23.69;39.54;101564.81;4938591;28;45332;-84
2024/03/23 07:10:09;;;;;;;;;0.00;0.00;;;;;23.69;39.32;101551.50;4938285;28;45400;-84
2024/03/23 07:12:34;;;;;;;;;0.00;0.00;;;;;23.70;39.50;101553.19;4937061;28;45541;-83
2024/03/23 07:15:00;;;;;;;;;0.33;0.00;;;;;23.66;39.56;101538.56;4937845;28;45513;-84
2024/03/23 07:17:25;;;;;;;;;0.00;0.00;;;;;23.74;39.42;101559.78;4937909;28;45378;-84
2024/03/23 07:19:50;;;;;;;;;0.00;0.00;;;;;23.66;39.33;101546.53;4938137;28;48797;-85
2024/03/23 07:22:16;;;;;;;;;1.00;1.00;;;;;23.83;39.49;101566.72;4937531;28;50786;-84
2024/03/23 07:24:41;;;;;;;;;0.33;0.00;;;;;23.84;39.66;101563.06;4938587;28;45399;-85
2024/03/23 07:27:09;;;;;;;;;1.00;1.00;;;;;23.80;39.51;101559.09;4938315;28;46555;-85
2024/03/23 07:29:35;;;;;;;;;1.00;1.00;;;;;23.74;39.48;101546.50;4938571;28;45381;-85
2024/03/23 07:32:01;;;;;;;;;0.00;0.00;;;;;23.82;39.39;101549.13;4937480;28;45362;-85
2024/03/23 07:34:26;;;;;;;;;1.33;0.00;;;;;23.85;39.46;101561.22;4938113;28;45387;-84
2024/03/23 07:36:51;;;;;;;;;0.00;0.00;;;;;23.89;39.37;101570.50;4935486;28;45546;-84
2024/03/23 07:39:17;;;;;;;;;0.00;0.00;;;;;23.93;39.47;101573.66;4899246;28;45421;-84
2024/03/23 07:41:45;;;;;;;;;0.67;0.00;;;;;23.90;39.46;101566.00;4926875;28;45401;-84
2024/03/23 07:44:10;;;;;;;;;1.00;1.00;;;;;23.91;39.38;101568.53;4937540;28;45402;-85
2024/03/23 07:46:35;;;;;;;;;0.00;0.00;;;;;23.96;39.38;101568.81;4936988;28;46289;-85
2024/03/23 07:49:01;;;;;;;;;0.00;0.00;;;;;23.70;39.39;101530.09;4937477;28;45441;-84
2024/03/23 07:51:26;;;;;;;;;2.00;0.00;;;;;23.93;39.24;101566.50;4937576;28;45466;-85
2024/03/23 07:53:52;;;;;;;;;0.00;0.00;;;;;23.81;39.05;101542.16;4937781;28;45497;-85
2024/03/23 07:56:18;;;;;;;;;0.00;0.00;;;;;24.00;39.27;101579.06;4938148;28;46856;-84
2024/03/23 07:58:45;;;;;;;;;0.00;0.00;;;;;23.87;39.09;101547.75;4937763;28;45434;-85
2024/03/23 08:01:15;;;;;;;;;0.33;0.33;;;;;24.01;39.16;101578.91;4937133;28;45366;-85
2024/03/23 08:03:43;;;;;;;;;0.00;0.00;;;;;24.00;39.48;101571.09;4938167;28;45215;-85
2024/03/23 08:06:13;;;;;;;;;1.67;0.67;;;;;23.98;39.26;101575.78;4937796;28;45414;-85
2024/03/23 08:08:39;;;;;;;;;0.00;0.00;;;;;24.01;39.06;101586.88;4936998;28;45289;-85
2024/03/23 08:11:05;;;;;;;;;0.00;0.00;;;;;24.03;39.17;101584.03;4937340;28;45450;-83
2024/03/23 08:13:31;;;;;;;;;0.00;0.00;;;;;24.02;39.39;101574.44;4937239;28;45358;-83
2024/03/23 08:15:58;;;;;;;;;0.00;0.00;;;;;24.02;39.15;101582.41;4936771;28;47066;-84
2024/03/23 08:18:24;;;;;;;;;0.00;0.00;;;;;24.01;39.27;101583.41;4937129;28;45369;-84
2024/03/23 08:20:59;;;;;;;;;1.00;1.00;;;;;23.99;39.22;101583.59;4937478;28;45341;-84
2024/03/23 08:23:28;;;;;;;;;0.00;0.00;;;;;23.95;38.95;101580.44;4937015;28;45394;-82
2024/03/23 08:26:05;;;;;;;;;1.00;1.00;;;;;23.99;39.07;101590.72;4936898;28;45260;-83
2024/03/23 08:28:30;;;;;;;;;1.00;0.00;;;;;23.94;39.09;101573.47;4936684;28;45328;-84
2024/03/23 08:30:56;;;;;;;;;0.00;0.00;;;;;24.02;39.34;101580.56;4937344;28;45277;-84
2024/03/23 08:33:25;;;;;;;;;0.67;0.33;;;;;23.79;39.17;101540.66;4937430;28;45394;-85
2024/03/23 08:35:57;;;;;;;;;0.33;0.00;;;;;24.09;39.15;101577.19;4937140;28;45359;-84
2024/03/23 08:38:23;;;;;;;;;0.00;0.00;;;;;24.13;39.66;101581.16;4924440;28;45477;-84
2024/03/23 08:40:57;;;;;;;;;0.00;0.00;;;;;24.02;39.39;101558.50;4927129;28;45418;-84
2024/03/23 08:43:23;;;;;;;;;1.00;1.00;;;;;24.19;39.48;101580.47;4940714;28;45334;-85
2024/03/23 08:45:48;;;;;;;;;0.00;0.00;;;;;24.10;39.44;101558.41;4940504;28;46374;-86
2024/03/23 08:48:13;;;;;;;;;0.00;0.00;;;;;24.23;39.18;101570.28;4940634;28;45383;-85
2024/03/23 08:50:39;;;;;;;;;0.67;0.00;;;;;24.18;39.30;101552.19;4940704;28;45383;-84
2024/03/23 08:53:04;;;;;;;;;0.00;0.00;;;;;24.16;39.35;101539.09;4940307;28;45449;-83
2024/03/23 08:55:30;;;;;;;;;1.00;0.00;;;;;24.24;39.44;101548.84;4940126;28;46961;-84
2024/03/23 08:57:55;;;;;;;;;0.00;0.00;;;;;24.32;39.19;101552.47;4939570;28;45345;-83
2024/03/23 09:00:21;;;;;;;;;1.00;0.00;;;;;24.17;39.28;101527.44;4939009;28;45374;-84
2024/03/23 09:02:50;;;;;;;;;2.00;0.00;;;;;24.29;39.20;101545.69;4939905;28;45414;-84
2024/03/23 09:05:15;;;;;;;;;1.00;1.00;;;;;24.22;39.53;101529.59;4939924;28;45333;-85
2024/03/23 09:07:40;;;;;;;;;0.00;0.00;;;;;24.18;39.28;101531.75;4939779;28;45373;-85
2024/03/23 09:10:07;;;;;;;;;0.00;0.00;;;;;24.19;39.20;101532.59;4940407;28;45318;-83
2024/03/23 09:12:33;;;;;;;;;0.00;0.00;;;;;24.29;39.33;101540.34;4939746;28;45484;-83
2024/03/23 09:14:58;;;;;;;;;0.00;0.00;;;;;24.31;39.20;101541.00;4939897;28;46352;-84
2024/03/23 09:17:23;;;;;;;;;2.33;0.00;;;;;24.30;39.30;101542.03;4940068;28;45381;-84
2024/03/23 09:19:48;;;;;;;;;0.33;0.00;;;;;24.18;39.21;101518.47;4939564;28;46824;-84
2024/03/23 09:22:14;;;;;;;;;0.00;0.00;;;;;24.32;39.28;101533.84;4939806;28;46016;-83
2024/03/23 09:24:40;;;;;;;;;1.00;0.00;;;;;24.22;39.43;101507.47;4939419;28;46879;-84
2024/03/23 09:27:06;;;;;;;;;0.67;0.00;;;;;24.38;39.50;101525.16;4938893;28;45792;-84
2024/03/23 09:29:31;;;;;;;;;0.00;0.00;;;;;24.41;39.21;101524.78;4938368;28;45362;-85
2024/03/23 09:31:56;;;;;;;;;1.00;0.67;;;;;24.43;39.27;101529.94;4939485;28;45485;-84
2024/03/23 09:34:22;;;;;;;;;1.00;0.00;;;;;24.37;39.18;101536.81;4939095;28;46325;-84
2024/03/23 09:36:51;;;;;;;;;0.00;0.00;;;;;24.36;39.48;101543.94;4938409;28;45447;-84
2024/03/23 09:39:16;;;;;;;;;0.67;0.67;;;;;24.32;39.28;101532.03;4900993;28;45374;-83
2024/03/23 09:41:42;;;;;;;;;0.33;0.00;;;;;24.36;39.50;101551.94;4926955;28;45477;-83
2024/03/23 09:44:08;;;;;;;;;0.00;0.00;;;;;24.34;39.32;101548.63;4939049;28;46099;-84
2024/03/23 09:46:36;;;;;;;;;1.00;1.00;;;;;24.24;39.30;101535.56;4938902;28;45331;-83
2024/03/23 09:49:04;;;;;;;;;1.00;1.00;;;;;24.22;39.24;101540.22;4937930;28;45402;-83
2024/03/23 09:51:29;;;;;;;;;0.00;0.00;;;;;24.30;39.45;101547.34;4939047;28;45312;-83
2024/03/23 09:53:55;;;;;;;;;0.67;0.00;;;;;24.26;39.66;101540.69;4938832;28;45356;-83
2024/03/23 09:56:21;;;;;;;;;1.00;0.00;;;;;24.13;39.32;101517.34;4938475;28;45449;-83
2024/03/23 09:58:46;;;;;;;;;0.00;0.00;;;;;24.17;39.37;101530.09;4939095;28;45298;-84
2024/03/23 10:01:12;;;;;;;;;1.33;0.00;;;;;24.27;39.42;101543.22;4938972;28;45416;-84
2024/03/23 10:03:44;;;;;;;;;0.67;0.67;;;;;24.17;39.60;101513.34;4938712;28;46118;-84
2024/03/23 10:06:10;;;;;;;;;0.00;0.00;;;;;24.28;39.16;101544.00;4938896;28;45373;-84
2024/03/23 10:08:35;;;;;;;;;0.00;0.00;;;;;24.26;39.29;101533.56;4939004;28;45532;-84
2024/03/23 10:11:15;;;;;;;;;2.00;0.67;;;;;24.29;39.71;101532.38;4938340;28;45420;-83
2024/03/23 10:13:43;;;;;;;;;0.00;0.00;;;;;24.27;39.53;101531.75;4938590;28;46217;-84
2024/03/23 10:16:08;;;;;;;;;0.33;0.33;;;;;24.18;39.62;101513.16;4938693;28;45414;-83
2024/03/23 10:18:37;;;;;;;;;1.00;1.00;;;;;24.27;39.50;101524.59;4938730;28;45390;-84
2024/03/23 10:21:06;;;;;;;;;1.00;0.00;;;;;24.28;39.51;101504.97;4938859;28;45231;-84
2024/03/23 10:23:32;;;;;;;;;3.33;0.00;;;;;24.20;39.62;101491.69;4938203;28;46917;-83
2024/03/23 10:26:25;;;;;;;;;2.00;0.00;;;;;24.19;39.36;101482.09;4936864;28;45358;-83
2024/03/23 10:29:07;;;;;;;;;0.00;0.00;;;;;24.28;39.20;101491.66;4938379;28;45421;-84
2024/03/23 10:31:35;;;;;;;;;0.00;0.00;;;;;24.29;39.41;101492.50;4938656;28;45369;-84
2024/03/23 10:34:01;;;;;;;;;0.00;0.00;;;;;24.26;39.02;101483.03;4938147;28;46114;-84
2024/03/23 10:36:26;;;;;;;;;0.00;0.00;;;;;24.23;39.18;101487.84;4938125;28;45371;-84
2024/03/23 10:38:52;;;;;;;;;0.00;0.00;;;;;24.27;39.05;101505.16;4904488;28;45493;-84
2024/03/23 10:41:19;;;;;;;;;0.00;0.00;;;;;24.16;39.30;101493.91;4919988;28;45483;-84
2024/03/23 10:43:48;;;;;;;;;1.00;0.00;;;;;24.09;39.17;101482.34;4938102;28;47134;-85
2024/03/23 10:46:14;;;;;;;;;0.00;0.00;;;;;24.21;39.33;101500.50;4938721;28;45334;-84
2024/03/23 10:48:39;;;;;;;;;0.00;0.00;;;;;24.17;39.00;101495.53;4938548;28;45398;-84
2024/03/23 10:51:09;;;;;;;;;0.00;0.00;;;;;24.26;39.35;101490.16;4938271;28;45362;-85
2024/03/23 10:53:36;;;;;;;;;0.00;0.00;;;;;24.15;39.35;101475.44;4937612;28;45417;-84
2024/03/23 10:56:03;;;;;;;;;0.00;0.00;;;;;24.26;39.36;101493.69;4938129;28;45494;-84
2024/03/23 10:58:33;;;;;;;;;0.00;0.00;;;;;24.21;39.39;101487.22;4938531;28;45390;-84
2024/03/23 11:00:59;;;;;;;;;0.00;0.00;;;;;24.27;39.32;101494.50;4939062;28;45456;-84
2024/03/23 11:03:38;;;;;;;;;0.00;0.00;;;;;24.27;39.36;101486.53;4937860;28;46177;-84
2024/03/23 11:06:10;;;;;;;;;0.00;0.00;;;;;24.28;39.49;101486.34;4938065;28;45464;-85
2024/03/23 11:08:37;;;;;;;;;1.00;1.00;;;;;24.28;39.25;101483.69;4938005;28;45160;-84
2024/03/23 11:11:20;;;;;;;;;0.00;0.00;;;;;24.22;39.45;101478.25;4937906;28;45227;-83
2024/03/23 11:13:49;;;;;;;;;0.00;0.00;;;;;24.26;38.99;101474.19;4937615;28;47267;-84
2024/03/23 11:16:30;;;;;;;;;2.00;2.00;;;;;24.28;39.38;101473.03;4937734;28;45405;-83
2024/03/23 11:19:33;;;;;;;;;0.00;0.00;;;;;24.28;39.50;101465.06;4938546;28;45436;-85
2024/03/23 11:21:58;;;;;;;;;0.00;0.00;;;;;24.18;39.04;101449.34;4938061;28;45308;-83